sensor_id;sensor_type;location;lat;lon;timestamp;temperature;humidity
23081;DHT22;11708;50.570;8.532;2022-07-12T00:01:41;16.40;99.90
23081;DHT22;11708;50.570;8.532;2022-07-12T00:04:07;16.50;99.90
23081;DHT22;11708;50.570;8.532;2022-07-12T00:06:32;16.40;99.90
23081;DHT22;11708;50.570;8.532;2022-07-12T00:08:58;16.40;99.90
23081;DHT22;11708;50.570;8.532;2022-07-12T00:11:23;16.50;99.90
23081;DHT22;11708;50.570;8.532;2022-07-12T00:13:49;16.30;99.90
23081;DHT22;11708;50.570;8.532;2022-07-12T00:16:14;16.30;99.90
23081;DHT22;11708;50.570;8.532;2022-07-12T00:18:40;16.20;99.90
23081;DHT22;11708;50.570;8.532;2022-07-12T00:21:07;16.20;99.90
23081;DHT22;11708;50.570;8.532;2022-07-12T00:23:33;16.10;99.90
23081;DHT22;11708;50.570;8.532;2022-07-12T00:25:59;16.10;99.90
23081;DHT22;11708;50.570;8.532;2022-07-12T00:28:32;16.00;99.90
23081;DHT22;11708;50.570;8.532;2022-07-12T00:30:58;16.00;99.90
23081;DHT22;11708;50.570;8.532;2022-07-12T00:33:24;16.00;99.90
23081;DHT22;11708;50.570;8.532;2022-07-12T00:35:50;15.90;99.90
23081;DHT22;11708;50.570;8.532;2022-07-12T00:38:15;15.90;99.90
23081;DHT22;11708;50.570;8.532;2022-07-12T00:40:41;15.90;99.90
23081;DHT22;11708;50.570;8.532;2022-07-12T00:43:07;15.80;99.90
23081;DHT22;11708;50.570;8.532;2022-07-12T00:45:32;15.80;99.90
23081;DHT22;11708;50.570;8.532;2022-07-12T00:47:59;15.80;99.90
23081;DHT22;11708;50.570;8.532;2022-07-12T00:50:25;15.70;99.90
23081;DHT22;11708;50.570;8.532;2022-07-12T00:52:56;15.70;99.90
23081;DHT22;11708;50.570;8.532;2022-07-12T00:55:23;15.60;99.90
23081;DHT22;11708;50.570;8.532;2022-07-12T00:57:50;15.70;99.90
23081;DHT22;11708;50.570;8.532;2022-07-12T01:00:27;15.60;99.90
23081;DHT22;11708;50.570;8.532;2022-07-12T01:02:55;15.60;99.90
23081;DHT22;11708;50.570;8.532;2022-07-12T01:05:20;15.60;99.90
23081;DHT22;11708;50.570;8.532;2022-07-12T01:07:50;15.50;99.90
23081;DHT22;11708;50.570;8.532;2022-07-12T01:10:16;15.50;99.90
23081;DHT22;11708;50.570;8.532;2022-07-12T01:12:45;15.40;99.90
23081;DHT22;11708;50.570;8.532;2022-07-12T01:15:10;15.30;99.90
23081;DHT22;11708;50.570;8.532;2022-07-12T01:17:36;15.30;99.90
23081;DHT22;11708;50.570;8.532;2022-07-12T01:20:04;15.20;99.90
23081;DHT22;11708;50.570;8.532;2022-07-12T01:22:33;15.20;99.90
23081;DHT22;11708;50.570;8.532;2022-07-12T01:25:00;15.10;99.90
23081;DHT22;11708;50.570;8.532;2022-07-12T01:27:29;15.10;99.90
23081;DHT22;11708;50.570;8.532;2022-07-12T01:29:55;15.10;99.90
23081;DHT22;11708;50.570;8.532;2022-07-12T01:32:22;15.10;99.90
23081;DHT22;11708;50.570;8.532;2022-07-12T01:34:55;15.00;99.90
23081;DHT22;11708;50.570;8.532;2022-07-12T01:37:22;15.00;99.90
23081;DHT22;11708;50.570;8.532;2022-07-12T01:39:50;15.00;99.90
23081;DHT22;11708;50.570;8.532;2022-07-12T01:42:16;15.10;99.90
23081;DHT22;11708;50.570;8.532;2022-07-12T01:44:41;15.00;99.90
23081;DHT22;11708;50.570;8.532;2022-07-12T01:47:07;15.00;99.90
23081;DHT22;11708;50.570;8.532;2022-07-12T01:49:33;14.90;99.90
23081;DHT22;11708;50.570;8.532;2022-07-12T01:51:58;14.90;99.90
23081;DHT22;11708;50.570;8.532;2022-07-12T01:54:25;14.90;99.90
23081;DHT22;11708;50.570;8.532;2022-07-12T01:56:52;14.80;99.90
23081;DHT22;11708;50.570;8.532;2022-07-12T01:59:18;14.70;99.90
23081;DHT22;11708;50.570;8.532;2022-07-12T02:01:45;14.70;99.90
23081;DHT22;11708;50.570;8.532;2022-07-12T02:04:10;14.60;99.90
23081;DHT22;11708;50.570;8.532;2022-07-12T02:06:37;14.60;99.90
23081;DHT22;11708;50.570;8.532;2022-07-12T02:09:04;14.60;99.90
23081;DHT22;11708;50.570;8.532;2022-07-12T02:11:30;14.60;99.90
23081;DHT22;11708;50.570;8.532;2022-07-12T02:13:56;14.50;99.90
23081;DHT22;11708;50.570;8.532;2022-07-12T02:16:22;14.50;99.90
23081;DHT22;11708;50.570;8.532;2022-07-12T02:18:47;14.50;99.90
23081;DHT22;11708;50.570;8.532;2022-07-12T02:21:13;14.50;99.90
23081;DHT22;11708;50.570;8.532;2022-07-12T02:23:38;14.50;99.90
23081;DHT22;11708;50.570;8.532;2022-07-12T02:26:04;14.50;99.90
23081;DHT22;11708;50.570;8.532;2022-07-12T02:28:33;14.50;99.90
23081;DHT22;11708;50.570;8.532;2022-07-12T02:30:58;15.80;99.90
23081;DHT22;11708;50.570;8.532;2022-07-12T02:33:24;14.40;99.90
23081;DHT22;11708;50.570;8.532;2022-07-12T02:35:50;14.40;99.90
23081;DHT22;11708;50.570;8.532;2022-07-12T02:38:16;14.40;99.90
23081;DHT22;11708;50.570;8.532;2022-07-12T02:40:41;14.40;99.90
23081;DHT22;11708;50.570;8.532;2022-07-12T02:43:27;14.40;99.90
23081;DHT22;11708;50.570;8.532;2022-07-12T02:45:53;14.40;99.90
23081;DHT22;11708;50.570;8.532;2022-07-12T02:48:20;14.40;99.90
23081;DHT22;11708;50.570;8.532;2022-07-12T02:50:46;14.40;99.90
23081;DHT22;11708;50.570;8.532;2022-07-12T02:53:12;14.30;99.90
23081;DHT22;11708;50.570;8.532;2022-07-12T02:55:38;14.40;99.90
23081;DHT22;11708;50.570;8.532;2022-07-12T02:58:04;14.40;99.90
23081;DHT22;11708;50.570;8.532;2022-07-12T03:00:34;14.40;99.90
23081;DHT22;11708;50.570;8.532;2022-07-12T03:03:00;14.40;99.90
23081;DHT22;11708;50.570;8.532;2022-07-12T03:05:26;14.30;99.90
23081;DHT22;11708;50.570;8.532;2022-07-12T03:07:51;14.30;99.90
23081;DHT22;11708;50.570;8.532;2022-07-12T03:10:17;14.20;99.90
23081;DHT22;11708;50.570;8.532;2022-07-12T03:12:42;14.20;99.90
23081;DHT22;11708;50.570;8.532;2022-07-12T03:15:08;14.00;99.90
23081;DHT22;11708;50.570;8.532;2022-07-12T03:17:34;14.30;99.90
23081;DHT22;11708;50.570;8.532;2022-07-12T03:20:01;14.00;99.90
23081;DHT22;11708;50.570;8.532;2022-07-12T03:22:27;13.90;99.90
23081;DHT22;11708;50.570;8.532;2022-07-12T03:24:52;13.90;99.90
23081;DHT22;11708;50.570;8.532;2022-07-12T03:27:18;13.80;99.90
23081;DHT22;11708;50.570;8.532;2022-07-12T03:29:44;13.80;99.90
23081;DHT22;11708;50.570;8.532;2022-07-12T03:32:09;13.70;99.90
23081;DHT22;11708;50.570;8.532;2022-07-12T03:34:35;13.70;99.90
23081;DHT22;11708;50.570;8.532;2022-07-12T03:37:02;13.60;99.90
23081;DHT22;11708;50.570;8.532;2022-07-12T03:39:28;13.60;99.90
23081;DHT22;11708;50.570;8.532;2022-07-12T03:41:54;13.60;99.90
23081;DHT22;11708;50.570;8.532;2022-07-12T03:44:28;13.70;99.90
23081;DHT22;11708;50.570;8.532;2022-07-12T03:46:55;13.60;99.90
23081;DHT22;11708;50.570;8.532;2022-07-12T03:49:21;13.50;99.90
23081;DHT22;11708;50.570;8.532;2022-07-12T03:51:46;13.50;99.90
23081;DHT22;11708;50.570;8.532;2022-07-12T03:54:12;13.50;99.90
23081;DHT22;11708;50.570;8.532;2022-07-12T03:56:37;12.80;99.90
23081;DHT22;11708;50.570;8.532;2022-07-12T03:59:28;13.40;99.90
23081;DHT22;11708;50.570;8.532;2022-07-12T04:01:53;13.40;99.90
23081;DHT22;11708;50.570;8.532;2022-07-12T04:04:19;13.60;99.90
23081;DHT22;11708;50.570;8.532;2022-07-12T04:06:44;13.40;99.90
23081;DHT22;11708;50.570;8.532;2022-07-12T04:09:11;13.50;99.90
23081;DHT22;11708;50.570;8.532;2022-07-12T04:11:37;13.50;99.90
23081;DHT22;11708;50.570;8.532;2022-07-12T04:14:03;13.50;99.90
23081;DHT22;11708;50.570;8.532;2022-07-12T04:16:28;13.50;99.90
23081;DHT22;11708;50.570;8.532;2022-07-12T04:18:55;13.50;99.90
23081;DHT22;11708;50.570;8.532;2022-07-12T04:21:21;13.50;99.90
23081;DHT22;11708;50.570;8.532;2022-07-12T04:23:46;13.50;99.90
23081;DHT22;11708;50.570;8.532;2022-07-12T04:26:12;13.50;99.90
23081;DHT22;11708;50.570;8.532;2022-07-12T04:28:37;13.60;99.90
23081;DHT22;11708;50.570;8.532;2022-07-12T04:31:03;13.60;99.90
23081;DHT22;11708;50.570;8.532;2022-07-12T04:33:32;13.60;99.90
23081;DHT22;11708;50.570;8.532;2022-07-12T04:36:00;13.60;99.90
23081;DHT22;11708;50.570;8.532;2022-07-12T04:38:26;13.60;99.90
23081;DHT22;11708;50.570;8.532;2022-07-12T04:40:51;13.70;99.90
23081;DHT22;11708;50.570;8.532;2022-07-12T04:43:17;13.60;99.90
23081;DHT22;11708;50.570;8.532;2022-07-12T04:45:43;13.70;99.90
23081;DHT22;11708;50.570;8.532;2022-07-12T04:48:10;13.60;99.90
23081;DHT22;11708;50.570;8.532;2022-07-12T04:50:35;13.60;99.90
23081;DHT22;11708;50.570;8.532;2022-07-12T04:53:01;13.70;99.90
23081;DHT22;11708;50.570;8.532;2022-07-12T04:55:27;13.70;99.90
23081;DHT22;11708;50.570;8.532;2022-07-12T04:57:55;13.70;99.90
23081;DHT22;11708;50.570;8.532;2022-07-12T05:00:21;13.80;99.90
23081;DHT22;11708;50.570;8.532;2022-07-12T05:02:47;13.80;99.90
23081;DHT22;11708;50.570;8.532;2022-07-12T05:05:12;13.90;99.90
23081;DHT22;11708;50.570;8.532;2022-07-12T05:07:40;13.90;99.90
23081;DHT22;11708;50.570;8.532;2022-07-12T05:10:07;14.00;99.90
23081;DHT22;11708;50.570;8.532;2022-07-12T05:12:34;14.00;99.90
23081;DHT22;11708;50.570;8.532;2022-07-12T05:15:00;14.10;99.90
23081;DHT22;11708;50.570;8.532;2022-07-12T05:17:25;14.30;99.90
23081;DHT22;11708;50.570;8.532;2022-07-12T05:19:51;14.20;99.90
23081;DHT22;11708;50.570;8.532;2022-07-12T05:22:17;14.20;99.90
23081;DHT22;11708;50.570;8.532;2022-07-12T05:24:46;14.30;99.90
23081;DHT22;11708;50.570;8.532;2022-07-12T05:27:12;14.30;99.90
23081;DHT22;11708;50.570;8.532;2022-07-12T05:29:39;14.40;99.90
23081;DHT22;11708;50.570;8.532;2022-07-12T05:32:05;14.40;99.90
23081;DHT22;11708;50.570;8.532;2022-07-12T05:34:31;14.50;99.90
23081;DHT22;11708;50.570;8.532;2022-07-12T05:36:56;14.60;99.90
23081;DHT22;11708;50.570;8.532;2022-07-12T05:39:22;14.60;99.90
23081;DHT22;11708;50.570;8.532;2022-07-12T05:41:48;14.70;99.90
23081;DHT22;11708;50.570;8.532;2022-07-12T05:44:14;14.80;99.90
23081;DHT22;11708;50.570;8.532;2022-07-12T05:46:48;14.90;99.90
23081;DHT22;11708;50.570;8.532;2022-07-12T05:49:15;15.10;99.90
23081;DHT22;11708;50.570;8.532;2022-07-12T05:51:40;15.00;99.90
23081;DHT22;11708;50.570;8.532;2022-07-12T05:54:24;15.10;99.90
23081;DHT22;11708;50.570;8.532;2022-07-12T05:56:50;15.20;99.90
23081;DHT22;11708;50.570;8.532;2022-07-12T05:59:18;15.30;99.90
23081;DHT22;11708;50.570;8.532;2022-07-12T06:01:46;15.30;99.90
23081;DHT22;11708;50.570;8.532;2022-07-12T06:04:11;15.40;99.90
23081;DHT22;11708;50.570;8.532;2022-07-12T06:06:37;15.50;99.90
23081;DHT22;11708;50.570;8.532;2022-07-12T06:09:03;15.60;99.90
23081;DHT22;11708;50.570;8.532;2022-07-12T06:11:29;15.70;99.90
23081;DHT22;11708;50.570;8.532;2022-07-12T06:13:54;15.70;99.90
23081;DHT22;11708;50.570;8.532;2022-07-12T06:16:20;15.80;99.90
23081;DHT22;11708;50.570;8.532;2022-07-12T06:18:45;15.90;99.90
23081;DHT22;11708;50.570;8.532;2022-07-12T06:21:12;15.90;99.90
23081;DHT22;11708;50.570;8.532;2022-07-12T06:23:38;16.00;99.90
23081;DHT22;11708;50.570;8.532;2022-07-12T06:26:03;16.00;99.90
23081;DHT22;11708;50.570;8.532;2022-07-12T06:28:29;16.10;99.90
23081;DHT22;11708;50.570;8.532;2022-07-12T06:30:55;16.20;99.90
23081;DHT22;11708;50.570;8.532;2022-07-12T06:33:20;16.30;99.90
23081;DHT22;11708;50.570;8.532;2022-07-12T06:35:46;16.40;99.90
23081;DHT22;11708;50.570;8.532;2022-07-12T06:38:12;16.40;99.90
23081;DHT22;11708;50.570;8.532;2022-07-12T06:40:37;16.50;99.90
23081;DHT22;11708;50.570;8.532;2022-07-12T06:43:08;16.50;99.90
23081;DHT22;11708;50.570;8.532;2022-07-12T06:45:34;16.70;99.90
23081;DHT22;11708;50.570;8.532;2022-07-12T06:48:00;16.80;99.90
23081;DHT22;11708;50.570;8.532;2022-07-12T06:50:25;16.90;99.90
23081;DHT22;11708;50.570;8.532;2022-07-12T06:52:51;16.90;99.90
23081;DHT22;11708;50.570;8.532;2022-07-12T06:55:16;17.00;99.90
23081;DHT22;11708;50.570;8.532;2022-07-12T06:57:45;17.10;99.90
23081;DHT22;11708;50.570;8.532;2022-07-12T07:00:10;17.20;99.90
23081;DHT22;11708;50.570;8.532;2022-07-12T07:02:38;17.30;99.90
23081;DHT22;11708;50.570;8.532;2022-07-12T07:05:05;17.40;99.90
23081;DHT22;11708;50.570;8.532;2022-07-12T07:07:30;17.80;99.90
23081;DHT22;11708;50.570;8.532;2022-07-12T07:09:56;17.70;99.90
23081;DHT22;11708;50.570;8.532;2022-07-12T07:12:21;17.80;99.90
23081;DHT22;11708;50.570;8.532;2022-07-12T07:14:48;17.90;99.90
23081;DHT22;11708;50.570;8.532;2022-07-12T07:17:15;18.00;99.90
23081;DHT22;11708;50.570;8.532;2022-07-12T07:19:42;18.10;99.90
23081;DHT22;11708;50.570;8.532;2022-07-12T07:22:07;18.30;99.90
23081;DHT22;11708;50.570;8.532;2022-07-12T07:24:33;18.40;99.90
23081;DHT22;11708;50.570;8.532;2022-07-12T07:26:58;18.50;99.90
23081;DHT22;11708;50.570;8.532;2022-07-12T07:29:24;18.60;99.90
23081;DHT22;11708;50.570;8.532;2022-07-12T07:32:09;18.70;99.90
23081;DHT22;11708;50.570;8.532;2022-07-12T07:34:35;18.90;99.90
23081;DHT22;11708;50.570;8.532;2022-07-12T07:37:01;18.90;99.90
23081;DHT22;11708;50.570;8.532;2022-07-12T07:39:27;19.00;99.90
23081;DHT22;11708;50.570;8.532;2022-07-12T07:41:52;19.30;99.90
23081;DHT22;11708;50.570;8.532;2022-07-12T07:44:18;19.20;99.90
23081;DHT22;11708;50.570;8.532;2022-07-12T07:46:43;20.60;99.90
23081;DHT22;11708;50.570;8.532;2022-07-12T07:49:09;19.40;99.90
23081;DHT22;11708;50.570;8.532;2022-07-12T07:51:35;19.50;99.90
23081;DHT22;11708;50.570;8.532;2022-07-12T07:54:00;19.80;99.90
23081;DHT22;11708;50.570;8.532;2022-07-12T07:56:28;19.70;99.90
23081;DHT22;11708;50.570;8.532;2022-07-12T07:58:54;19.80;99.90
23081;DHT22;11708;50.570;8.532;2022-07-12T08:01:22;19.90;99.90
23081;DHT22;11708;50.570;8.532;2022-07-12T08:04:11;20.00;99.90
23081;DHT22;11708;50.570;8.532;2022-07-12T08:06:37;20.00;99.90
23081;DHT22;11708;50.570;8.532;2022-07-12T08:09:03;20.00;99.90
23081;DHT22;11708;50.570;8.532;2022-07-12T08:11:29;20.10;99.90
23081;DHT22;11708;50.570;8.532;2022-07-12T08:13:55;20.20;99.90
23081;DHT22;11708;50.570;8.532;2022-07-12T08:16:20;20.30;99.90
23081;DHT22;11708;50.570;8.532;2022-07-12T08:18:46;20.40;99.90
23081;DHT22;11708;50.570;8.532;2022-07-12T08:21:11;20.50;99.90
23081;DHT22;11708;50.570;8.532;2022-07-12T08:23:37;20.50;99.90
23081;DHT22;11708;50.570;8.532;2022-07-12T08:26:03;20.60;99.90
23081;DHT22;11708;50.570;8.532;2022-07-12T08:28:28;20.70;99.90
23081;DHT22;11708;50.570;8.532;2022-07-12T08:30:57;20.80;99.90
23081;DHT22;11708;50.570;8.532;2022-07-12T08:33:22;20.80;99.90
23081;DHT22;11708;50.570;8.532;2022-07-12T08:35:48;20.90;99.90
23081;DHT22;11708;50.570;8.532;2022-07-12T08:38:13;21.00;99.90
23081;DHT22;11708;50.570;8.532;2022-07-12T08:40:43;21.10;99.90
23081;DHT22;11708;50.570;8.532;2022-07-12T08:43:09;21.20;99.90
23081;DHT22;11708;50.570;8.532;2022-07-12T08:45:35;21.30;99.90
23081;DHT22;11708;50.570;8.532;2022-07-12T08:48:01;21.30;99.90
23081;DHT22;11708;50.570;8.532;2022-07-12T08:50:27;21.50;99.90
23081;DHT22;11708;50.570;8.532;2022-07-12T08:52:54;21.70;99.90
23081;DHT22;11708;50.570;8.532;2022-07-12T08:55:28;21.60;99.90
23081;DHT22;11708;50.570;8.532;2022-07-12T08:57:56;21.50;99.90
23081;DHT22;11708;50.570;8.532;2022-07-12T09:00:23;21.60;99.90
23081;DHT22;11708;50.570;8.532;2022-07-12T09:02:51;21.60;99.90
23081;DHT22;11708;50.570;8.532;2022-07-12T09:05:18;21.30;99.90
23081;DHT22;11708;50.570;8.532;2022-07-12T09:07:48;21.50;99.90
23081;DHT22;11708;50.570;8.532;2022-07-12T09:10:17;21.60;99.90
23081;DHT22;11708;50.570;8.532;2022-07-12T09:12:44;21.60;99.90
23081;DHT22;11708;50.570;8.532;2022-07-12T09:15:21;21.60;99.90
23081;DHT22;11708;50.570;8.532;2022-07-12T09:20:32;21.70;99.90
23081;DHT22;11708;50.570;8.532;2022-07-12T09:23:04;21.70;99.90
23081;DHT22;11708;50.570;8.532;2022-07-12T09:25:30;21.80;99.90
23081;DHT22;11708;50.570;8.532;2022-07-12T09:27:58;21.90;99.90
23081;DHT22;11708;50.570;8.532;2022-07-12T09:30:26;21.90;99.90
23081;DHT22;11708;50.570;8.532;2022-07-12T09:33:06;21.80;99.90
23081;DHT22;11708;50.570;8.532;2022-07-12T09:41:01;21.90;99.90
23081;DHT22;11708;50.570;8.532;2022-07-12T09:43:27;21.90;99.90
23081;DHT22;11708;50.570;8.532;2022-07-12T09:45:53;22.00;99.90
23081;DHT22;11708;50.570;8.532;2022-07-12T09:48:20;22.10;99.90
23081;DHT22;11708;50.570;8.532;2022-07-12T09:50:50;22.20;99.90
23081;DHT22;11708;50.570;8.532;2022-07-12T09:53:23;22.30;99.90
23081;DHT22;11708;50.570;8.532;2022-07-12T09:55:52;22.30;99.90
23081;DHT22;11708;50.570;8.532;2022-07-12T09:58:28;22.30;99.90
23081;DHT22;11708;50.570;8.532;2022-07-12T10:00:55;22.40;99.90
23081;DHT22;11708;50.570;8.532;2022-07-12T10:03:28;22.50;99.90
23081;DHT22;11708;50.570;8.532;2022-07-12T10:05:55;22.50;99.90
23081;DHT22;11708;50.570;8.532;2022-07-12T10:08:21;22.50;99.90
23081;DHT22;11708;50.570;8.532;2022-07-12T10:10:50;22.50;99.90
23081;DHT22;11708;50.570;8.532;2022-07-12T10:13:17;22.50;99.90
23081;DHT22;11708;50.570;8.532;2022-07-12T10:15:47;22.50;99.90
23081;DHT22;11708;50.570;8.532;2022-07-12T10:18:18;22.50;99.90
23081;DHT22;11708;50.570;8.532;2022-07-12T10:20:46;22.50;99.90
23081;DHT22;11708;50.570;8.532;2022-07-12T10:23:29;22.30;99.90
23081;DHT22;11708;50.570;8.532;2022-07-12T10:25:56;22.70;99.90
23081;DHT22;11708;50.570;8.532;2022-07-12T10:28:22;22.80;99.90
23081;DHT22;11708;50.570;8.532;2022-07-12T10:30:49;22.80;99.90
23081;DHT22;11708;50.570;8.532;2022-07-12T10:33:17;22.90;99.90
23081;DHT22;11708;50.570;8.532;2022-07-12T10:36:03;22.90;99.90
23081;DHT22;11708;50.570;8.532;2022-07-12T10:38:31;22.90;99.90
23081;DHT22;11708;50.570;8.532;2022-07-12T10:40:57;23.00;99.90
23081;DHT22;11708;50.570;8.532;2022-07-12T10:43:27;23.10;99.90
23081;DHT22;11708;50.570;8.532;2022-07-12T10:46:22;23.20;99.90
23081;DHT22;11708;50.570;8.532;2022-07-12T10:48:49;23.30;99.90
23081;DHT22;11708;50.570;8.532;2022-07-12T10:51:18;23.40;99.90
23081;DHT22;11708;50.570;8.532;2022-07-12T10:53:50;23.50;99.90
23081;DHT22;11708;50.570;8.532;2022-07-12T10:56:21;23.50;99.90
23081;DHT22;11708;50.570;8.532;2022-07-12T10:58:52;23.60;99.90
23081;DHT22;11708;50.570;8.532;2022-07-12T11:01:24;23.50;99.90
23081;DHT22;11708;50.570;8.532;2022-07-12T11:04:07;23.60;99.90
23081;DHT22;11708;50.570;8.532;2022-07-12T11:06:41;23.80;99.90
23081;DHT22;11708;50.570;8.532;2022-07-12T11:09:11;23.90;99.90
23081;DHT22;11708;50.570;8.532;2022-07-12T11:14:08;24.20;99.90
23081;DHT22;11708;50.570;8.532;2022-07-12T11:16:42;24.40;99.90
23081;DHT22;11708;50.570;8.532;2022-07-12T11:19:07;24.60;99.90
23081;DHT22;11708;50.570;8.532;2022-07-12T11:21:33;24.70;99.90
23081;DHT22;11708;50.570;8.532;2022-07-12T11:23:59;24.80;99.90
23081;DHT22;11708;50.570;8.532;2022-07-12T11:26:25;24.90;99.90
23081;DHT22;11708;50.570;8.532;2022-07-12T11:28:51;24.90;99.90
23081;DHT22;11708;50.570;8.532;2022-07-12T11:31:17;25.30;99.90
23081;DHT22;11708;50.570;8.532;2022-07-12T11:33:48;25.50;99.90
23081;DHT22;11708;50.570;8.532;2022-07-12T11:36:14;25.50;99.90
23081;DHT22;11708;50.570;8.532;2022-07-12T11:38:45;25.50;99.90
23081;DHT22;11708;50.570;8.532;2022-07-12T11:41:14;25.60;99.90
23081;DHT22;11708;50.570;8.532;2022-07-12T11:43:40;25.70;99.90
23081;DHT22;11708;50.570;8.532;2022-07-12T11:46:07;26.00;99.90
23081;DHT22;11708;50.570;8.532;2022-07-12T11:48:35;26.30;99.90
23081;DHT22;11708;50.570;8.532;2022-07-12T11:51:03;26.50;99.90
23081;DHT22;11708;50.570;8.532;2022-07-12T11:53:29;26.80;99.90
23081;DHT22;11708;50.570;8.532;2022-07-12T11:55:57;27.10;99.90
23081;DHT22;11708;50.570;8.532;2022-07-12T11:58:25;27.20;99.90
23081;DHT22;11708;50.570;8.532;2022-07-12T12:00:52;27.60;99.90
23081;DHT22;11708;50.570;8.532;2022-07-12T12:03:19;27.80;99.90
23081;DHT22;11708;50.570;8.532;2022-07-12T12:05:50;28.10;99.90
23081;DHT22;11708;50.570;8.532;2022-07-12T12:08:16;28.00;99.90
23081;DHT22;11708;50.570;8.532;2022-07-12T12:10:51;28.10;99.90
23081;DHT22;11708;50.570;8.532;2022-07-12T12:13:18;27.80;99.90
23081;DHT22;11708;50.570;8.532;2022-07-12T12:15:52;27.90;99.90
23081;DHT22;11708;50.570;8.532;2022-07-12T12:18:34;28.10;99.90
23081;DHT22;11708;50.570;8.532;2022-07-12T12:21:03;28.20;99.90
23081;DHT22;11708;50.570;8.532;2022-07-12T12:23:29;28.40;99.90
23081;DHT22;11708;50.570;8.532;2022-07-12T12:26:18;28.70;99.90
23081;DHT22;11708;50.570;8.532;2022-07-12T12:28:53;28.90;99.90
23081;DHT22;11708;50.570;8.532;2022-07-12T12:31:21;29.10;99.90
23081;DHT22;11708;50.570;8.532;2022-07-12T12:33:56;29.40;99.70
23081;DHT22;11708;50.570;8.532;2022-07-12T12:36:24;29.60;99.30
23081;DHT22;11708;50.570;8.532;2022-07-12T12:38:57;29.90;98.60
23081;DHT22;11708;50.570;8.532;2022-07-12T12:41:25;30.10;98.30
23081;DHT22;11708;50.570;8.532;2022-07-12T12:44:05;30.50;98.00
23081;DHT22;11708;50.570;8.532;2022-07-12T12:49:47;30.90;95.30
23081;DHT22;11708;50.570;8.532;2022-07-12T12:52:14;30.60;95.00
23081;DHT22;11708;50.570;8.532;2022-07-12T12:54:39;30.60;94.60
23081;DHT22;11708;50.570;8.532;2022-07-12T12:57:06;30.50;94.10
23081;DHT22;11708;50.570;8.532;2022-07-12T12:59:33;30.60;93.70
23081;DHT22;11708;50.570;8.532;2022-07-12T13:02:02;30.90;93.80
23081;DHT22;11708;50.570;8.532;2022-07-12T13:04:28;31.10;92.90
23081;DHT22;11708;50.570;8.532;2022-07-12T13:06:54;31.20;91.60
23081;DHT22;11708;50.570;8.532;2022-07-12T13:09:21;31.20;91.40
23081;DHT22;11708;50.570;8.532;2022-07-12T13:11:50;31.20;91.00
23081;DHT22;11708;50.570;8.532;2022-07-12T13:14:15;31.50;91.10
23081;DHT22;11708;50.570;8.532;2022-07-12T13:16:41;31.80;90.60
23081;DHT22;11708;50.570;8.532;2022-07-12T13:19:07;32.20;88.50
23081;DHT22;11708;50.570;8.532;2022-07-12T13:21:35;32.30;86.90
23081;DHT22;11708;50.570;8.532;2022-07-12T13:24:00;32.50;85.80
23081;DHT22;11708;50.570;8.532;2022-07-12T13:26:26;32.80;85.30
23081;DHT22;11708;50.570;8.532;2022-07-12T13:28:55;33.20;83.40
23081;DHT22;11708;50.570;8.532;2022-07-12T13:31:21;33.40;80.90
23081;DHT22;11708;50.570;8.532;2022-07-12T13:33:46;33.00;79.70
23081;DHT22;11708;50.570;8.532;2022-07-12T13:36:12;32.80;81.40
23081;DHT22;11708;50.570;8.532;2022-07-12T13:38:39;33.10;79.70
23081;DHT22;11708;50.570;8.532;2022-07-12T13:41:04;33.30;78.90
23081;DHT22;11708;50.570;8.532;2022-07-12T13:43:30;33.60;77.20
23081;DHT22;11708;50.570;8.532;2022-07-12T13:45:56;34.00;75.70
23081;DHT22;11708;50.570;8.532;2022-07-12T13:48:22;34.30;73.70
23081;DHT22;11708;50.570;8.532;2022-07-12T13:50:47;34.60;73.00
23081;DHT22;11708;50.570;8.532;2022-07-12T13:53:14;34.90;71.30
23081;DHT22;11708;50.570;8.532;2022-07-12T13:55:42;34.90;69.10
23081;DHT22;11708;50.570;8.532;2022-07-12T13:58:11;34.70;69.50
23081;DHT22;11708;50.570;8.532;2022-07-12T14:00:39;34.80;67.80
23081;DHT22;11708;50.570;8.532;2022-07-12T14:03:05;35.00;66.90
23081;DHT22;11708;50.570;8.532;2022-07-12T14:05:31;35.20;65.00
23081;DHT22;11708;50.570;8.532;2022-07-12T14:07:57;35.10;63.40
23081;DHT22;11708;50.570;8.532;2022-07-12T14:10:22;34.90;64.20
23081;DHT22;11708;50.570;8.532;2022-07-12T14:12:48;34.80;63.50
23081;DHT22;11708;50.570;8.532;2022-07-12T14:15:14;34.70;63.20
23081;DHT22;11708;50.570;8.532;2022-07-12T14:17:42;34.40;62.00
23081;DHT22;11708;50.570;8.532;2022-07-12T14:20:13;34.30;62.60
23081;DHT22;11708;50.570;8.532;2022-07-12T14:22:39;34.60;62.70
23081;DHT22;11708;50.570;8.532;2022-07-12T14:25:05;34.20;62.40
23081;DHT22;11708;50.570;8.532;2022-07-12T14:27:35;34.20;63.20
23081;DHT22;11708;50.570;8.532;2022-07-12T14:30:02;34.10;63.60
23081;DHT22;11708;50.570;8.532;2022-07-12T14:32:28;34.20;61.90
23081;DHT22;11708;50.570;8.532;2022-07-12T14:34:53;34.30;62.00
23081;DHT22;11708;50.570;8.532;2022-07-12T14:37:24;34.30;62.70
23081;DHT22;11708;50.570;8.532;2022-07-12T14:39:50;33.90;61.70
23081;DHT22;11708;50.570;8.532;2022-07-12T14:42:15;33.50;63.40
23081;DHT22;11708;50.570;8.532;2022-07-12T14:44:41;33.50;63.30
23081;DHT22;11708;50.570;8.532;2022-07-12T14:47:07;33.70;64.50
23081;DHT22;11708;50.570;8.532;2022-07-12T14:49:33;34.00;63.40
23081;DHT22;11708;50.570;8.532;2022-07-12T14:51:59;34.10;62.00
23081;DHT22;11708;50.570;8.532;2022-07-12T14:54:24;33.90;62.40
23081;DHT22;11708;50.570;8.532;2022-07-12T14:56:50;33.90;62.00
23081;DHT22;11708;50.570;8.532;2022-07-12T14:59:16;33.80;62.60
23081;DHT22;11708;50.570;8.532;2022-07-12T15:01:47;33.60;62.20
23081;DHT22;11708;50.570;8.532;2022-07-12T15:04:16;33.50;60.80
23081;DHT22;11708;50.570;8.532;2022-07-12T15:06:42;33.10;63.10
23081;DHT22;11708;50.570;8.532;2022-07-12T15:09:07;32.90;62.30
23081;DHT22;11708;50.570;8.532;2022-07-12T15:11:33;32.70;62.70
23081;DHT22;11708;50.570;8.532;2022-07-12T15:13:59;32.70;64.20
23081;DHT22;11708;50.570;8.532;2022-07-12T15:16:24;32.90;63.50
23081;DHT22;11708;50.570;8.532;2022-07-12T15:18:53;33.20;63.40
23081;DHT22;11708;50.570;8.532;2022-07-12T15:21:19;33.30;64.00
23081;DHT22;11708;50.570;8.532;2022-07-12T15:23:45;33.30;63.90
23081;DHT22;11708;50.570;8.532;2022-07-12T15:26:11;33.40;62.20
23081;DHT22;11708;50.570;8.532;2022-07-12T15:28:49;33.10;61.90
23081;DHT22;11708;50.570;8.532;2022-07-12T15:31:15;33.10;60.00
23081;DHT22;11708;50.570;8.532;2022-07-12T15:33:41;33.20;61.80
23081;DHT22;11708;50.570;8.532;2022-07-12T15:36:06;33.20;62.90
23081;DHT22;11708;50.570;8.532;2022-07-12T15:38:32;33.40;63.30
23081;DHT22;11708;50.570;8.532;2022-07-12T15:40:59;33.20;61.00
23081;DHT22;11708;50.570;8.532;2022-07-12T15:43:24;33.40;61.30
23081;DHT22;11708;50.570;8.532;2022-07-12T15:45:50;33.60;61.90